Aeroporto :







RITROVATECI SU...

 
LOGIN :

Iscrizione | Disclaimer

   EN    FR    IT 

 









Sommario :    VFR   VFR Marginale   IFR   IFR Intensivo   IFR Molto Intensivo
Visibilità : 
Base nubi : 
>= 8 km
>= 3000ft
5 / 8 km
1000 / 3000 ft
1500m / 5 km
500 / 1000 ft
800 / 1500m
200 / 500 ft
< 800m
< 200 ft
Simboli :   Temporali  Nebbia  Neve Forte  Precipitazioni Forti  Vento > 20 kt






- Altitudine del aeroporto : 13 ft
- Codice IATA : SXM


TNCM - Princess Juliana Int.

ULTIMO METAR :
  • 021100Z 07010KT 9999 FEW018 SCT035 29/23 Q1017 NOSIG

METARs OBSOLETI :
  • 021000Z 07007KT 040V100 9999 SCT018 SCT035 28/23 Q1017 NOSIG

TAF TNCM
Valido dal 02 a 12 ore il 03 a 12 ore UTC


021120Z 0212/0312 09010KT P6SM SCT018
FM021800 10010KT P6SM FEW025
FM030600 10010KT P6SM SCT025 SCT040
FIR TJZS / America del Nord



MetMap, La meteo Aeronautica in un colpo d'occhio ! - Copyright ORBIFLY Dicembre 2007 - Disclaimer

ORBIFLY MET'MAP TEAM :

Programmazione e sviluppo : Alexandra Zaïnal
Concezione : Baudouin d'Aumeries
Aiuto per la programmazione : Marc-Olivier Méhu
Supporto tecnico e logistico : Manuel Goepfert
Aiuto per la traduzione : Arnaldo La Scala

Contatto : metmap@orbifly.com




FONTI E CREDITI :

   NOAA